This is the latest recevied weather packets stored in our database for station/object KE8GJZ-1. If no packets are shown the sender has not sent any weather packets the latest 10 day(s).
| Time | Temp. | Humidity | Pressure | Rain* | Wind** | Luminosity | Snow |
|---|---|---|---|---|---|---|---|
| 1777751440 | 9.44° C | 41% | 1014.8 hPa | 0 mm | - | 432 W/m² | - |
| 1777751137 | 9.44° C | 42% | 1015 hPa | 0 mm | - | 219 W/m² | - |
| 1777750833 | 9.44° C | 40% | 1015 hPa | 0 mm | - | 208 W/m² | - |
| 1777750530 | 9.44° C | 39% | 1015.1 hPa | 0 mm | - | 194 W/m² | - |
| 1777750227 | 10° C | 38% | 1015.1 hPa | 0 mm | - | 261 W/m² | - |
| 1777749922 | 8.89° C | 45% | 1015.1 hPa | 0 mm | - | 892 W/m² | - |
| 1777749620 | 8.89° C | 42% | 1015.2 hPa | 0 mm | - | 141 W/m² | - |
| 1777749317 | 9.44° C | 42% | 1015.4 hPa | 0 mm | - | 140 W/m² | - |
| 1777749015 | 10° C | 41% | 1015.3 hPa | 0 mm | - | 225 W/m² | - |
| 1777748712 | 9.44° C | 42% | 1015.4 hPa | 0 mm | - | 327 W/m² | - |
| 1777748104 | 9.44° C | 41% | 1015.1 hPa | 0 mm | - | 149 W/m² | - |
| 1777747801 | 10° C | 38% | 1015.4 hPa | 0 mm | - | 156 W/m² | - |
| 1777747496 | 10.56° C | 40% | 1015.4 hPa | 0 mm | - | 237 W/m² | - |
| 1777746586 | 11.67° C | 37% | 1015.3 hPa | 0 mm | - | 312 W/m² | - |
| 1777746280 | 10° C | 42% | 1015.6 hPa | 0 mm | - | 764 W/m² | - |
| 1777745976 | 8.89° C | 42% | 1015.7 hPa | 0 mm | - | 227 W/m² | - |
| 1777745675 | 9.44° C | 40% | 1015.5 hPa | 0 mm | - | 191 W/m² | - |
| 1777745373 | 10° C | 38% | 1015.6 hPa | 0 mm | - | 206 W/m² | - |
| 1777744766 | 9.44° C | 41% | 1015.6 hPa | 0 mm | - | 267 W/m² | - |
| 1777744460 | 10° C | 38% | 1015.7 hPa | 0 mm | - | 187 W/m² | - |
| 1777743550 | 10° C | 37% | 1015.7 hPa | 0 mm | - | 385 W/m² | - |
| 1777742643 | 9.44° C | 39% | 1016 hPa | 0 mm | - | 173 W/m² | - |
| 1777742338 | 10.56° C | 38% | 1016 hPa | 0 mm | - | 201 W/m² | - |
| 1777741732 | 9.44° C | 40% | 1015.7 hPa | 0 mm | - | 224 W/m² | - |
| 1777741124 | 9.44° C | 42% | 1015.9 hPa | 0 mm | - | 771 W/m² | - |
* Rain latest hour (hover to see other rain measurements)
** Current wind speed in m/s (hover to see current wind gust speed)